sensor_id;sensor_type;location;lat;lon;timestamp;P1;P2;P0
57798;PMS7003;43626;53.866;30.298;2024-02-16T00:04:13;42.2;33;17.4
57798;PMS7003;43626;53.866;30.298;2024-02-16T00:09:51;46.6;33.8;17.4
57798;PMS7003;43626;53.866;30.298;2024-02-16T00:14:51;44;33.4;18.4
57798;PMS7003;43626;53.866;30.298;2024-02-16T00:19:27;45;35.4;20.2
57798;PMS7003;43626;53.866;30.298;2024-02-16T00:24:51;47.6;34.4;18.2
57798;PMS7003;43626;53.866;30.298;2024-02-16T00:29:19;45.6;34.4;19
57798;PMS7003;43626;53.866;30.298;2024-02-16T00:34:07;48;34.6;18.2
57798;PMS7003;43626;53.866;30.298;2024-02-16T00:39:07;44.4;33.8;18.8
57798;PMS7003;43626;53.866;30.298;2024-02-16T00:44:13;46.3;35.5;17.8
57798;PMS7003;43626;53.866;30.298;2024-02-16T00:49:07;50.4;37.2;19.2
57798;PMS7003;43626;53.866;30.298;2024-02-16T00:54:51;49.4;37.4;19.6
57798;PMS7003;43626;53.866;30.298;2024-02-16T00:59:25;50.4;38;20
57798;PMS7003;43626;53.866;30.298;2024-02-16T01:04:51;48.2;36.4;18.2
57798;PMS7003;43626;53.866;30.298;2024-02-16T01:09:39;46.8;35.4;19
57798;PMS7003;43626;53.866;30.298;2024-02-16T01:14:14;48;34.4;19.2
57798;PMS7003;43626;53.866;30.298;2024-02-16T01:19:23;45.2;34;17.4
57798;PMS7003;43626;53.866;30.298;2024-02-16T01:24:09;49.4;35.4;18.4
57798;PMS7003;43626;53.866;30.298;2024-02-16T01:29:43;44.6;33.6;17.4
57798;PMS7003;43626;53.866;30.298;2024-02-16T01:34:07;46.4;35;18.2
57798;PMS7003;43626;53.866;30.298;2024-02-16T01:39:43;47.6;36;18.8
57798;PMS7003;43626;53.866;30.298;2024-02-16T01:44:39;47.8;34;19.3
57798;PMS7003;43626;53.866;30.298;2024-02-16T01:49:51;52.8;38.8;20.6
57798;PMS7003;43626;53.866;30.298;2024-02-16T01:54:43;55.6;40.8;21.6
57798;PMS7003;43626;53.866;30.298;2024-02-16T01:59:25;58.4;42.4;23
57798;PMS7003;43626;53.866;30.298;2024-02-16T02:04:45;61.6;45.2;25
57798;PMS7003;43626;53.866;30.298;2024-02-16T02:09:07;61;46;24.4
57798;PMS7003;43626;53.866;30.298;2024-02-16T02:14:43;60.6;45.8;25.2
57798;PMS7003;43626;53.866;30.298;2024-02-16T02:19:31;58.8;43.6;23.2
57798;PMS7003;43626;53.866;30.298;2024-02-16T02:24:07;54.4;41.4;22.2
57798;PMS7003;43626;53.866;30.298;2024-02-16T02:29:07;54;39.6;21.8
57798;PMS7003;43626;53.866;30.298;2024-02-16T02:34:39;50;39.2;20.4
57798;PMS7003;43626;53.866;30.298;2024-02-16T02:39:51;48.4;37;19.6
57798;PMS7003;43626;53.866;30.298;2024-02-16T02:44:51;48;34.8;17.5
57798;PMS7003;43626;53.866;30.298;2024-02-16T02:49:19;47.2;34.8;17
57798;PMS7003;43626;53.866;30.298;2024-02-16T02:54:31;49.6;36;18
57798;PMS7003;43626;53.866;30.298;2024-02-16T02:59:51;47.6;34.4;17.2
57798;PMS7003;43626;53.866;30.298;2024-02-16T03:04:34;47;33.6;17
57798;PMS7003;43626;53.866;30.298;2024-02-16T03:09:23;41.6;32.4;15.4
57798;PMS7003;43626;53.866;30.298;2024-02-16T03:14:31;44;31.6;14.4
57798;PMS7003;43626;53.866;30.298;2024-02-16T03:19:49;49.2;36;19.4
57798;PMS7003;43626;53.866;30.298;2024-02-16T03:24:51;53.2;40.2;21.4
57798;PMS7003;43626;53.866;30.298;2024-02-16T03:29:13;52.6;40.2;21.6
57798;PMS7003;43626;53.866;30.298;2024-02-16T03:34:43;49.6;36.2;19.6
57798;PMS7003;43626;53.866;30.298;2024-02-16T03:39:13;48;36.8;20
57798;PMS7003;43626;53.866;30.298;2024-02-16T03:44:13;51.4;37;20.4
57798;PMS7003;43626;53.866;30.298;2024-02-16T03:49:07;49.5;36.5;19.3
57798;PMS7003;43626;53.866;30.298;2024-02-16T03:54:23;54.4;40.6;20.2
57798;PMS7003;43626;53.866;30.298;2024-02-16T03:59:25;50.6;37.8;20.4
57798;PMS7003;43626;53.866;30.298;2024-02-16T04:04:31;48.8;37.4;19.4
57798;PMS7003;43626;53.866;30.298;2024-02-16T04:09:51;51;37.6;20.2
57798;PMS7003;43626;53.866;30.298;2024-02-16T04:14:51;52.8;38.2;20.2
57798;PMS7003;43626;53.866;30.298;2024-02-16T04:19:51;49.6;35.4;18.8
57798;PMS7003;43626;53.866;30.298;2024-02-16T04:24:13;50.4;36.6;19.2
57798;PMS7003;43626;53.866;30.298;2024-02-16T04:29:31;52.4;38;20
57798;PMS7003;43626;53.866;30.298;2024-02-16T04:34:31;55;39.6;20.2
57798;PMS7003;43626;53.866;30.298;2024-02-16T04:39:51;53;40.5;21.3
57798;PMS7003;43626;53.866;30.298;2024-02-16T04:44:51;56;41;21.2
57798;PMS7003;43626;53.866;30.298;2024-02-16T04:49:31;55.4;39.8;21
57798;PMS7003;43626;53.866;30.298;2024-02-16T04:54:07;53.8;39.6;21.6
57798;PMS7003;43626;53.866;30.298;2024-02-16T04:59:51;53;39.8;21.2
57798;PMS7003;43626;53.866;30.298;2024-02-16T05:04:39;55;41.4;21.6
57798;PMS7003;43626;53.866;30.298;2024-02-16T05:09:51;55;41.4;22.4
57798;PMS7003;43626;53.866;30.298;2024-02-16T05:14:33;49;37.4;20.6
57798;PMS7003;43626;53.866;30.298;2024-02-16T05:19:41;54.2;39.8;21.4
57798;PMS7003;43626;53.866;30.298;2024-02-16T05:24:08;54.2;42.6;23.4
57798;PMS7003;43626;53.866;30.298;2024-02-16T05:29:33;54.6;40.2;22.6
57798;PMS7003;43626;53.866;30.298;2024-02-16T05:34:15;58.3;43.3;22.5
57798;PMS7003;43626;53.866;30.298;2024-02-16T05:39:07;55;41.6;22.6
57798;PMS7003;43626;53.866;30.298;2024-02-16T05:44:07;55.2;41.2;23
57798;PMS7003;43626;53.866;30.298;2024-02-16T05:49:15;59;44.4;24.2
57798;PMS7003;43626;53.866;30.298;2024-02-16T05:54:41;61.2;45.6;23.8
57798;PMS7003;43626;53.866;30.298;2024-02-16T05:59:21;59.8;44;24.4
57798;PMS7003;43626;53.866;30.298;2024-02-16T06:04:45;61;45.8;24.6
57798;PMS7003;43626;53.866;30.298;2024-02-16T06:09:41;62.2;46;25.2
57798;PMS7003;43626;53.866;30.298;2024-02-16T06:14:45;60;45.6;24.2
57798;PMS7003;43626;53.866;30.298;2024-02-16T06:19:45;63.6;46;25.6
57798;PMS7003;43626;53.866;30.298;2024-02-16T06:24:53;58.2;43.8;25.2
57798;PMS7003;43626;53.866;30.298;2024-02-16T06:29:53;57.8;42.6;23.6
57798;PMS7003;43626;53.866;30.298;2024-02-16T06:34:53;56.5;41.8;22
57798;PMS7003;43626;53.866;30.298;2024-02-16T06:39:23;57.4;42.6;23.4
57798;PMS7003;43626;53.866;30.298;2024-02-16T06:44:53;55.6;41.4;23.6
57798;PMS7003;43626;53.866;30.298;2024-02-16T06:49:53;54.4;40;22.6
57798;PMS7003;43626;53.866;30.298;2024-02-16T06:54:41;55.8;41.2;22.2
57798;PMS7003;43626;53.866;30.298;2024-02-16T06:59:53;57.6;41.6;23
57798;PMS7003;43626;53.866;30.298;2024-02-16T07:04:07;57.8;43;22
57798;PMS7003;43626;53.866;30.298;2024-02-16T07:09:07;52.6;38.2;18
57798;PMS7003;43626;53.866;30.298;2024-02-16T07:14:33;56.4;40.4;22.4
57798;PMS7003;43626;53.866;30.298;2024-02-16T07:19:07;54.8;40;21.8
57798;PMS7003;43626;53.866;30.298;2024-02-16T07:24:07;58.4;43;23
57798;PMS7003;43626;53.866;30.298;2024-02-16T07:29:33;57.8;41.6;22.6
57798;PMS7003;43626;53.866;30.298;2024-02-16T07:34:45;59;42.3;22.8
57798;PMS7003;43626;53.866;30.298;2024-02-16T07:39:53;59;42.6;22.8
57798;PMS7003;43626;53.866;30.298;2024-02-16T07:44:53;54;39.2;21.6
57798;PMS7003;43626;53.866;30.298;2024-02-16T07:49:33;57.8;42.8;23.6
57798;PMS7003;43626;53.866;30.298;2024-02-16T07:54:15;59.4;43.8;23.6
57798;PMS7003;43626;53.866;30.298;2024-02-16T07:59:33;49.6;36.2;18.8
57798;PMS7003;43626;53.866;30.298;2024-02-16T08:04:53;50;37.6;20.6
57798;PMS7003;43626;53.866;30.298;2024-02-16T08:09:54;52.2;39.6;21.6
57798;PMS7003;43626;53.866;30.298;2024-02-16T08:14:25;53;38.8;21.6
57798;PMS7003;43626;53.866;30.298;2024-02-16T08:19:53;48.2;36.8;20.6
57798;PMS7003;43626;53.866;30.298;2024-02-16T08:24:53;51.2;37.4;21
57798;PMS7003;43626;53.866;30.298;2024-02-16T08:29:41;46.4;35;20
57798;PMS7003;43626;53.866;30.298;2024-02-16T08:34:53;42.3;31;15.5
57798;PMS7003;43626;53.866;30.298;2024-02-16T08:39:07;42.6;31.8;16.4
57798;PMS7003;43626;53.866;30.298;2024-02-16T08:44:25;39;31.2;15.8
57798;PMS7003;43626;53.866;30.298;2024-02-16T08:49:13;41.4;32.8;16.8
57798;PMS7003;43626;53.866;30.298;2024-02-16T08:54:17;36.6;30;15.2
57798;PMS7003;43626;53.866;30.298;2024-02-16T08:59:15;40.4;30.4;16
57798;PMS7003;43626;53.866;30.298;2024-02-16T09:04:27;47;33.8;19.8
57798;PMS7003;43626;53.866;30.298;2024-02-16T09:09:07;38;30.4;17
57798;PMS7003;43626;53.866;30.298;2024-02-16T09:14:53;41.6;30.4;16.8
57798;PMS7003;43626;53.866;30.298;2024-02-16T09:19:41;38.8;30.2;16
57798;PMS7003;43626;53.866;30.298;2024-02-16T09:24:13;39.4;30.6;15.8
57798;PMS7003;43626;53.866;30.298;2024-02-16T09:29:37;34.4;27.8;15.4
57798;PMS7003;43626;53.866;30.298;2024-02-16T09:34:15;31.5;27.8;15.3
57798;PMS7003;43626;53.866;30.298;2024-02-16T09:39:35;39;31.4;17.2
57798;PMS7003;43626;53.866;30.298;2024-02-16T09:44:54;39.6;31;16
57798;PMS7003;43626;53.866;30.298;2024-02-16T09:49:45;37;29.8;15.2
57798;PMS7003;43626;53.866;30.298;2024-02-16T09:54:41;29.4;24;13
57798;PMS7003;43626;53.866;30.298;2024-02-16T09:59:53;30;23.6;12.6
57798;PMS7003;43626;53.866;30.298;2024-02-16T10:04:15;29.2;22.8;12.6
57798;PMS7003;43626;53.866;30.298;2024-02-16T10:09:45;30.2;23.2;12.2
57798;PMS7003;43626;53.866;30.298;2024-02-16T10:14:31;24.4;20.2;11.4
57798;PMS7003;43626;53.866;30.298;2024-02-16T10:19:54;23.4;19.8;10.6
57798;PMS7003;43626;53.866;30.298;2024-02-16T10:24:20;26.8;21.4;11.4
57798;PMS7003;43626;53.866;30.298;2024-02-16T10:29:08;26.2;20.6;11.4
57798;PMS7003;43626;53.866;30.298;2024-02-16T10:34:19;23.2;19.4;10
57798;PMS7003;43626;53.866;30.298;2024-02-16T10:39:08;31.5;27;13.8
57798;PMS7003;43626;53.866;30.298;2024-02-16T10:44:09;28.6;23.4;11.8
57798;PMS7003;43626;53.866;30.298;2024-02-16T10:49:53;27.2;22;10.8
57798;PMS7003;43626;53.866;30.298;2024-02-16T10:54:53;24.4;19.8;10.4
57798;PMS7003;43626;53.866;30.298;2024-02-16T10:59:08;20.4;15.6;8.6
57798;PMS7003;43626;53.866;30.298;2024-02-16T11:04:36;21.2;18.4;9.4
57798;PMS7003;43626;53.866;30.298;2024-02-16T11:09:53;21.6;15;8.2
57798;PMS7003;43626;53.866;30.298;2024-02-16T11:14:46;18.6;15.8;8
57798;PMS7003;43626;53.866;30.298;2024-02-16T11:19:33;19.6;14.8;8.4
57798;PMS7003;43626;53.866;30.298;2024-02-16T11:24:34;24.4;19.2;9.6
57798;PMS7003;43626;53.866;30.298;2024-02-16T11:29:25;22.8;19;10.2
57798;PMS7003;43626;53.866;30.298;2024-02-16T11:34:53;23.4;18.2;10
57798;PMS7003;43626;53.866;30.298;2024-02-16T11:39:15;23.5;17.8;10.3
57798;PMS7003;43626;53.866;30.298;2024-02-16T11:44:54;27.2;22.6;12.8
57798;PMS7003;43626;53.866;30.298;2024-02-16T11:49:08;32.8;25.4;14.4
57798;PMS7003;43626;53.866;30.298;2024-02-16T11:54:43;31.2;26.2;14.8
57798;PMS7003;43626;53.866;30.298;2024-02-16T11:59:47;29.2;25.4;13.6
57798;PMS7003;43626;53.866;30.298;2024-02-16T12:04:07;31.8;24.2;13
57798;PMS7003;43626;53.866;30.298;2024-02-16T12:09:33;29.6;23.8;13.6
57798;PMS7003;43626;53.866;30.298;2024-02-16T12:14:07;35.8;29;14.6
57798;PMS7003;43626;53.866;30.298;2024-02-16T12:19:51;38.4;29.2;15.4
57798;PMS7003;43626;53.866;30.298;2024-02-16T12:24:27;35.4;28.4;15.4
57798;PMS7003;43626;53.866;30.298;2024-02-16T12:29:51;31.2;25.2;13.4
57798;PMS7003;43626;53.866;30.298;2024-02-16T12:34:07;32.4;26.4;14.4
57798;PMS7003;43626;53.866;30.298;2024-02-16T12:39:19;27.3;23;12.8
57798;PMS7003;43626;53.866;30.298;2024-02-16T12:44:51;25.4;20.8;12
57798;PMS7003;43626;53.866;30.298;2024-02-16T12:49:45;22.4;17.8;10.2
57798;PMS7003;43626;53.866;30.298;2024-02-16T12:54:07;22.2;19.6;10.6
57798;PMS7003;43626;53.866;30.298;2024-02-16T12:59:25;32.6;25.4;14.2
57798;PMS7003;43626;53.866;30.298;2024-02-16T13:04:17;26.2;23.2;12.8
57798;PMS7003;43626;53.866;30.298;2024-02-16T13:09:53;16.6;14.6;8.2
57798;PMS7003;43626;53.866;30.298;2024-02-16T13:14:33;24.2;20;11.6
57798;PMS7003;43626;53.866;30.298;2024-02-16T13:19:53;24.2;20.6;11.2
57798;PMS7003;43626;53.866;30.298;2024-02-16T13:24:33;22.2;16.8;9.8
57798;PMS7003;43626;53.866;30.298;2024-02-16T13:29:41;19.2;17;10.6
57798;PMS7003;43626;53.866;30.298;2024-02-16T13:34:15;17.4;16.2;10.4
57798;PMS7003;43626;53.866;30.298;2024-02-16T13:39:13;23.8;20.8;12.8
57798;PMS7003;43626;53.866;30.298;2024-02-16T13:44:25;21.2;18.6;12
57798;PMS7003;43626;53.866;30.298;2024-02-16T13:49:27;26.2;22.8;13.6
57798;PMS7003;43626;53.866;30.298;2024-02-16T13:54:08;32.2;26.2;15
57798;PMS7003;43626;53.866;30.298;2024-02-16T13:59:13;24.8;20.6;12.4
57798;PMS7003;43626;53.866;30.298;2024-02-16T14:04:54;24.4;20.8;13.2
57798;PMS7003;43626;53.866;30.298;2024-02-16T14:09:21;29.2;24.4;15.8
57798;PMS7003;43626;53.866;30.298;2024-02-16T14:14:53;26.2;23.4;15.6
57798;PMS7003;43626;53.866;30.298;2024-02-16T14:19:41;28.8;24.6;15.2
57798;PMS7003;43626;53.866;30.298;2024-02-16T14:24:45;29.4;25.6;16.2
57798;PMS7003;43626;53.866;30.298;2024-02-16T14:29:25;29.2;23.4;14.4
57798;PMS7003;43626;53.866;30.298;2024-02-16T14:34:33;30;24.8;15.4
57798;PMS7003;43626;53.866;30.298;2024-02-16T14:39:25;34.5;28.3;16.3
57798;PMS7003;43626;53.866;30.298;2024-02-16T14:44:53;33.4;29.2;18.2
57798;PMS7003;43626;53.866;30.298;2024-02-16T14:49:49;40.6;31.2;18.2
57798;PMS7003;43626;53.866;30.298;2024-02-16T14:54:41;36.8;29;16
57798;PMS7003;43626;53.866;30.298;2024-02-16T14:59:39;33.2;26.6;15.4
57798;PMS7003;43626;53.866;30.298;2024-02-16T15:04:15;37;31.2;18.2
57798;PMS7003;43626;53.866;30.298;2024-02-16T15:09:53;37.6;31.6;20.2
57798;PMS7003;43626;53.866;30.298;2024-02-16T15:14:14;33.2;28;17
57798;PMS7003;43626;53.866;30.298;2024-02-16T15:19:08;31.8;28.2;16
57798;PMS7003;43626;53.866;30.298;2024-02-16T15:24:07;32.8;28.8;17
57798;PMS7003;43626;53.866;30.298;2024-02-16T15:29:07;33.8;29.6;17.2
57798;PMS7003;43626;53.866;30.298;2024-02-16T15:34:26;37.6;30.2;17.8
57798;PMS7003;43626;53.866;30.298;2024-02-16T15:39:53;36.4;29.8;17.4
57798;PMS7003;43626;53.866;30.298;2024-02-16T15:44:08;28.3;23.3;12.8
57798;PMS7003;43626;53.866;30.298;2024-02-16T15:49:53;31.4;27.4;15.4
57798;PMS7003;43626;53.866;30.298;2024-02-16T15:54:17;36.2;30.8;18.2
57798;PMS7003;43626;53.866;30.298;2024-02-16T15:59:21;43.4;33.6;20
57798;PMS7003;43626;53.866;30.298;2024-02-16T16:04:27;50.2;39;22
57798;PMS7003;43626;53.866;30.298;2024-02-16T16:09:17;49.8;39.2;23.2
57798;PMS7003;43626;53.866;30.298;2024-02-16T16:14:49;44.2;33.6;20
57798;PMS7003;43626;53.866;30.298;2024-02-16T16:19:08;40;32.8;19
57798;PMS7003;43626;53.866;30.298;2024-02-16T16:24:47;44.2;32.8;19
57798;PMS7003;43626;53.866;30.298;2024-02-16T16:29:42;36.2;31;18.8
57798;PMS7003;43626;53.866;30.298;2024-02-16T16:34:56;35.4;29.2;17
57798;PMS7003;43626;53.866;30.298;2024-02-16T16:39:33;37.2;31.8;18
57798;PMS7003;43626;53.866;30.298;2024-02-16T16:44:56;35;29.8;17.3
57798;PMS7003;43626;53.866;30.298;2024-02-16T16:49:07;35.4;28.2;16.4
57798;PMS7003;43626;53.866;30.298;2024-02-16T16:54:28;28.8;24.4;14.6
57798;PMS7003;43626;53.866;30.298;2024-02-16T16:59:08;36.6;29.6;17.2
57798;PMS7003;43626;53.866;30.298;2024-02-16T17:04:20;34.6;29.4;17.4
57798;PMS7003;43626;53.866;30.298;2024-02-16T17:09:08;42.2;33.2;19.2
57798;PMS7003;43626;53.866;30.298;2024-02-16T17:14:10;40.2;32.4;19.8
57798;PMS7003;43626;53.866;30.298;2024-02-16T17:19:22;42.4;32.6;19.4
57798;PMS7003;43626;53.866;30.298;2024-02-16T17:24:56;48.6;37.8;21.2
57798;PMS7003;43626;53.866;30.298;2024-02-16T17:29:34;53.6;40;23.4
57798;PMS7003;43626;53.866;30.298;2024-02-16T17:34:22;49.2;38.4;23.4
57798;PMS7003;43626;53.866;30.298;2024-02-16T17:39:08;49;38.8;22.6
57798;PMS7003;43626;53.866;30.298;2024-02-16T17:44:28;43.8;35.3;22
57798;PMS7003;43626;53.866;30.298;2024-02-16T17:49:48;40.2;32.6;19.6
57798;PMS7003;43626;53.866;30.298;2024-02-16T17:54:08;39;32.4;19.2
57798;PMS7003;43626;53.866;30.298;2024-02-16T17:59:36;39.8;32.6;19.8
57798;PMS7003;43626;53.866;30.298;2024-02-16T18:04:42;42;33.8;20
57798;PMS7003;43626;53.866;30.298;2024-02-16T18:09:54;41.6;32.8;19.2
57798;PMS7003;43626;53.866;30.298;2024-02-16T18:14:34;40.8;32.6;19.2
57798;PMS7003;43626;53.866;30.298;2024-02-16T18:19:40;37.6;32.6;18.8
57798;PMS7003;43626;53.866;30.298;2024-02-16T18:24:34;44.2;34.6;20.6
57798;PMS7003;43626;53.866;30.298;2024-02-16T18:29:28;44.6;35.4;21.4
57798;PMS7003;43626;53.866;30.298;2024-02-16T18:34:16;40.6;34;20.6
57798;PMS7003;43626;53.866;30.298;2024-02-16T18:39:28;40.8;34.6;20.8
57798;PMS7003;43626;53.866;30.298;2024-02-16T18:44:42;41;34;20.8
57798;PMS7003;43626;53.866;30.298;2024-02-16T18:49:22;39.4;32.4;19.2
57798;PMS7003;43626;53.866;30.298;2024-02-16T18:54:34;36.6;30.2;18
57798;PMS7003;43626;53.866;30.298;2024-02-16T18:59:56;36.4;30.2;17.6
57798;PMS7003;43626;53.866;30.298;2024-02-16T19:04:56;32.8;27.2;15.8
57798;PMS7003;43626;53.866;30.298;2024-02-16T19:09:56;27.6;22.4;13
57798;PMS7003;43626;53.866;30.298;2024-02-16T19:14:56;27.4;22.6;12.8
57798;PMS7003;43626;53.866;30.298;2024-02-16T19:19:36;27.2;21.8;12.4
57798;PMS7003;43626;53.866;30.298;2024-02-16T19:24:38;28.6;24;12.6
57798;PMS7003;43626;53.866;30.298;2024-02-16T19:29:20;30.4;26.6;14.8
57798;PMS7003;43626;53.866;30.298;2024-02-16T19:34:36;35.8;28.6;14.4
57798;PMS7003;43626;53.866;30.298;2024-02-16T19:39:08;30.2;25.6;14.2
57798;PMS7003;43626;53.866;30.298;2024-02-16T19:44:56;32.5;27.3;14
57798;PMS7003;43626;53.866;30.298;2024-02-16T19:49:34;35.2;26.2;12.8
57798;PMS7003;43626;53.866;30.298;2024-02-16T19:54:50;33.4;27;13.6
57798;PMS7003;43626;53.866;30.298;2024-02-16T19:59:08;31.4;27.4;12
57798;PMS7003;43626;53.866;30.298;2024-02-16T20:04:42;34.2;25.8;12.6
57798;PMS7003;43626;53.866;30.298;2024-02-16T20:09:08;30.6;25.8;12.4
57798;PMS7003;43626;53.866;30.298;2024-02-16T20:14:14;37.4;28.8;13
57798;PMS7003;43626;53.866;30.298;2024-02-16T20:19:16;35.8;28.2;13.4
57798;PMS7003;43626;53.866;30.298;2024-02-16T20:24:22;33.8;27.4;12
57798;PMS7003;43626;53.866;30.298;2024-02-16T20:29:48;34.8;27.2;13.4
57798;PMS7003;43626;53.866;30.298;2024-02-16T20:34:08;34;26.4;12.8
57798;PMS7003;43626;53.866;30.298;2024-02-16T20:39:56;36.4;25.8;12.4
57798;PMS7003;43626;53.866;30.298;2024-02-16T20:44:16;32.8;25;12.2
57798;PMS7003;43626;53.866;30.298;2024-02-16T20:49:56;34.8;26;11.8
57798;PMS7003;43626;53.866;30.298;2024-02-16T20:54:48;28.8;24.2;12.2
57798;PMS7003;43626;53.866;30.298;2024-02-16T20:59:48;34.6;26.6;12.8
57798;PMS7003;43626;53.866;30.298;2024-02-16T21:04:29;27.8;23.4;11
57798;PMS7003;43626;53.866;30.298;2024-02-16T21:09:22;32.4;24;11.6
57798;PMS7003;43626;53.866;30.298;2024-02-16T21:14:20;29.6;23.4;10.6
57798;PMS7003;43626;53.866;30.298;2024-02-16T21:19:56;27.6;21.8;10
57798;PMS7003;43626;53.866;30.298;2024-02-16T21:24:34;27.8;21.5;9.5
57798;PMS7003;43626;53.866;30.298;2024-02-16T21:29:56;29.6;22;9.6
57798;PMS7003;43626;53.866;30.298;2024-02-16T21:34:26;27.2;21;9.8
57798;PMS7003;43626;53.866;30.298;2024-02-16T21:39:42;28.6;21;9.6
57798;PMS7003;43626;53.866;30.298;2024-02-16T21:44:34;23.8;19.4;9.6
57798;PMS7003;43626;53.866;30.298;2024-02-16T21:49:42;28;23.2;10.8
57798;PMS7003;43626;53.866;30.298;2024-02-16T21:54:08;24.6;20.8;10.4
57798;PMS7003;43626;53.866;30.298;2024-02-16T21:59:08;25.6;19.8;9.2
57798;PMS7003;43626;53.866;30.298;2024-02-16T22:04:08;27.2;21.8;9.6
57798;PMS7003;43626;53.866;30.298;2024-02-16T22:09:08;25.6;20.6;9.8
57798;PMS7003;43626;53.866;30.298;2024-02-16T22:14:54;28.4;22;10
57798;PMS7003;43626;53.866;30.298;2024-02-16T22:19:08;26.4;20.2;9.8
57798;PMS7003;43626;53.866;30.298;2024-02-16T22:24:54;24.2;18.6;9.8
57798;PMS7003;43626;53.866;30.298;2024-02-16T22:29:42;24.3;18.8;9.5
57798;PMS7003;43626;53.866;30.298;2024-02-16T22:34:48;24.8;18;9.4
57798;PMS7003;43626;53.866;30.298;2024-02-16T22:39:08;23.6;17.6;8.4
57798;PMS7003;43626;53.866;30.298;2024-02-16T22:44:36;25;20;9.2
57798;PMS7003;43626;53.866;30.298;2024-02-16T22:49:56;22.8;17.6;9.4
57798;PMS7003;43626;53.866;30.298;2024-02-16T22:54:56;24;17.6;8.8
57798;PMS7003;43626;53.866;30.298;2024-02-16T22:59:52;22.4;18.2;8.6
57798;PMS7003;43626;53.866;30.298;2024-02-16T23:04:34;24.8;17.8;8.6
57798;PMS7003;43626;53.866;30.298;2024-02-16T23:09:54;23;18;8.8
57798;PMS7003;43626;53.866;30.298;2024-02-16T23:14:40;22.2;16.6;8.8
57798;PMS7003;43626;53.866;30.298;2024-02-16T23:19:54;22.8;16.8;8.6
57798;PMS7003;43626;53.866;30.298;2024-02-16T23:24:08;26;18.6;9
57798;PMS7003;43626;53.866;30.298;2024-02-16T23:29:08;22;18;9
57798;PMS7003;43626;53.866;30.298;2024-02-16T23:34:14;23;18.4;9.4
57798;PMS7003;43626;53.866;30.298;2024-02-16T23:39:08;24;18.2;9.2
57798;PMS7003;43626;53.866;30.298;2024-02-16T23:44:14;22;17;8
57798;PMS7003;43626;53.866;30.298;2024-02-16T23:49:10;22.2;19.2;9.2
57798;PMS7003;43626;53.866;30.298;2024-02-16T23:54:22;22.4;16.4;8.6
57798;PMS7003;43626;53.866;30.298;2024-02-16T23:59:54;24.8;18.6;9.6
